createdAt,value
2018-04-14T00:00:46.405Z,10.00
2018-04-14T00:01:46.409Z,10.00
2018-04-14T00:02:46.409Z,10.00
2018-04-14T00:03:46.404Z,10.00
2018-04-14T00:04:46.414Z,11.00
2018-04-14T00:05:46.408Z,10.60
2018-04-14T00:06:46.403Z,10.80
2018-04-14T00:07:46.400Z,11.20
2018-04-14T00:08:46.396Z,10.40
2018-04-14T00:09:46.394Z,10.80
2018-04-14T00:10:46.397Z,10.60
2018-04-14T00:11:46.396Z,11.60
2018-04-14T00:12:46.388Z,11.80
2018-04-14T00:13:46.390Z,12.60
2018-04-14T00:14:46.388Z,14.10
2018-04-14T00:15:46.388Z,14.70
2018-04-14T00:16:46.392Z,14.70
2018-04-14T00:17:46.389Z,15.70
2018-04-14T00:18:46.387Z,16.50
2018-04-14T00:19:46.382Z,17.20
2018-04-14T00:20:46.381Z,17.60
2018-04-14T00:21:46.383Z,17.80
2018-04-14T00:22:46.376Z,17.60
2018-04-14T00:23:46.377Z,17.50
2018-04-14T00:24:46.373Z,18.00
2018-04-14T00:25:46.372Z,18.20
2018-04-14T00:26:46.371Z,16.70
2018-04-14T00:27:46.368Z,18.10
2018-04-14T00:28:46.366Z,17.30
2018-04-14T00:29:46.367Z,15.50
2018-04-14T00:30:46.365Z,16.10
2018-04-14T00:31:46.365Z,16.10
2018-04-14T00:32:46.360Z,17.60
2018-04-14T00:33:46.360Z,14.50
2018-04-14T00:34:46.354Z,15.00
2018-04-14T00:35:46.356Z,17.00
2018-04-14T00:36:46.355Z,16.90
2018-04-14T00:37:46.351Z,14.90
2018-04-14T00:38:46.349Z,15.80
2018-04-14T00:39:46.351Z,14.50
2018-04-14T00:40:46.350Z,15.40
2018-04-14T00:41:46.347Z,16.50
2018-04-14T00:42:46.344Z,16.00
2018-04-14T00:43:46.343Z,14.90
2018-04-14T00:44:46.344Z,13.20
2018-04-14T00:45:46.342Z,12.60
2018-04-14T00:46:46.335Z,12.90
2018-04-14T00:47:46.336Z,13.40
2018-04-14T00:48:46.365Z,13.00
2018-04-14T00:49:46.335Z,14.20
2018-04-14T00:50:46.333Z,14.40
2018-04-14T00:51:46.336Z,14.70
2018-04-14T00:52:46.332Z,14.80
2018-04-14T00:53:46.328Z,14.80
2018-04-14T00:54:46.330Z,15.40
2018-04-14T00:55:46.322Z,16.30
2018-04-14T00:56:46.324Z,16.60
2018-04-14T00:57:46.321Z,16.60
2018-04-14T00:58:46.322Z,17.60
2018-04-14T00:59:46.317Z,16.70
2018-04-14T01:00:46.317Z,17.40
2018-04-14T01:01:46.317Z,17.00
2018-04-14T01:02:46.315Z,18.40
2018-04-14T01:03:46.316Z,18.90
2018-04-14T01:04:46.313Z,17.90
2018-04-14T01:05:46.317Z,19.10
2018-04-14T01:06:46.314Z,19.90
2018-04-14T01:07:46.308Z,19.90
2018-04-14T01:08:46.305Z,20.70
2018-04-14T01:09:46.305Z,18.70
2018-04-14T01:10:46.303Z,20.30
2018-04-14T01:11:46.300Z,19.00
2018-04-14T01:12:46.302Z,19.90
2018-04-14T01:13:46.300Z,21.20
2018-04-14T01:14:46.299Z,20.40
2018-04-14T01:15:46.298Z,20.30
2018-04-14T01:16:46.295Z,21.10
2018-04-14T01:17:46.293Z,21.80
2018-04-14T01:18:46.305Z,22.90
2018-04-14T01:19:46.302Z,24.90
2018-04-14T01:20:46.289Z,23.30
2018-04-14T01:21:46.288Z,23.80
2018-04-14T01:22:46.349Z,24.80
2018-04-14T01:23:46.282Z,24.70
2018-04-14T01:24:46.282Z,26.60
2018-04-14T01:25:46.283Z,26.50
2018-04-14T01:26:46.286Z,28.00
2018-04-14T01:27:46.276Z,27.30
2018-04-14T01:28:46.278Z,26.40
2018-04-14T01:29:46.277Z,27.70
2018-04-14T01:30:46.276Z,27.00
2018-04-14T01:31:46.277Z,27.30
2018-04-14T01:32:46.272Z,25.60
2018-04-14T01:33:46.271Z,27.90
2018-04-14T01:34:46.273Z,27.90
2018-04-14T01:35:46.270Z,27.20
2018-04-14T01:36:46.264Z,29.50
2018-04-14T01:37:46.264Z,29.60
2018-04-14T01:38:46.263Z,30.40
2018-04-14T01:39:46.263Z,31.00
2018-04-14T01:40:46.258Z,32.10
2018-04-14T01:41:46.260Z,32.90
2018-04-14T01:42:46.256Z,31.40
2018-04-14T01:43:46.256Z,32.70
2018-04-14T01:44:46.256Z,32.90
2018-04-14T01:45:46.252Z,34.40
2018-04-14T01:46:46.250Z,33.50
2018-04-14T01:47:46.250Z,33.90
2018-04-14T01:48:46.242Z,36.30
2018-04-14T01:49:46.244Z,34.00
2018-04-14T01:50:46.243Z,35.20
2018-04-14T01:51:46.245Z,37.00
2018-04-14T01:52:46.234Z,38.60
2018-04-14T01:53:46.238Z,40.40
2018-04-14T01:54:46.238Z,41.20
2018-04-14T01:55:46.238Z,38.40
2018-04-14T01:56:46.240Z,39.30
2018-04-14T01:57:46.234Z,38.70
2018-04-14T01:58:46.231Z,42.90
2018-04-14T01:59:46.228Z,45.80
2018-04-14T02:00:46.228Z,47.90
2018-04-14T02:01:46.225Z,46.10
2018-04-14T02:02:46.225Z,41.90
2018-04-14T02:03:46.226Z,37.70
2018-04-14T02:04:46.225Z,37.90
2018-04-14T02:05:46.220Z,36.90
2018-04-14T02:06:46.218Z,36.10
2018-04-14T02:07:46.218Z,36.60
2018-04-14T02:08:46.218Z,34.50
2018-04-14T02:09:46.213Z,35.40
2018-04-14T02:10:46.211Z,36.00
2018-04-14T02:11:46.209Z,35.60
2018-04-14T02:12:46.211Z,35.00
2018-04-14T02:13:46.202Z,36.80
2018-04-14T02:14:46.203Z,36.10
2018-04-14T02:15:46.204Z,36.00
2018-04-14T02:16:46.200Z,35.30
2018-04-14T02:17:46.203Z,34.80
2018-04-14T02:18:46.197Z,35.80
2018-04-14T02:19:46.196Z,34.40
2018-04-14T02:20:46.200Z,34.00
2018-04-14T02:21:46.193Z,33.60
2018-04-14T02:22:46.190Z,37.70
2018-04-14T02:23:46.190Z,36.70
2018-04-14T02:24:46.187Z,33.90
2018-04-14T02:25:46.180Z,36.90
2018-04-14T02:26:46.184Z,36.70
2018-04-14T02:27:46.184Z,38.30
2018-04-14T02:28:46.180Z,35.90
2018-04-14T02:29:46.177Z,38.40
2018-04-14T02:30:46.184Z,40.60
2018-04-14T02:31:46.174Z,42.90
2018-04-14T02:32:46.172Z,38.80
2018-04-14T02:33:46.173Z,38.50
2018-04-14T02:34:46.169Z,35.60
2018-04-14T02:35:46.167Z,37.70
2018-04-14T02:36:46.171Z,39.30
2018-04-14T02:37:46.156Z,39.90
2018-04-14T02:38:46.163Z,40.40
2018-04-14T02:39:46.161Z,39.00
2018-04-14T02:40:46.157Z,37.70
2018-04-14T02:41:46.156Z,39.40
2018-04-14T02:42:46.158Z,39.60
2018-04-14T02:43:46.155Z,36.60
2018-04-14T02:44:46.154Z,42.40
2018-04-14T02:45:46.146Z,40.10
2018-04-14T02:46:46.147Z,39.70
2018-04-14T02:47:46.146Z,37.90
2018-04-14T02:48:46.143Z,37.60
2018-04-14T02:49:46.139Z,38.30
2018-04-14T02:50:46.138Z,39.80
2018-04-14T02:51:46.141Z,39.40
2018-04-14T02:52:46.134Z,38.70
2018-04-14T02:53:46.136Z,40.10
2018-04-14T02:54:46.128Z,39.40
2018-04-14T02:55:46.133Z,41.10
2018-04-14T02:56:46.131Z,40.20
2018-04-14T02:57:46.125Z,39.80
2018-04-14T02:58:46.125Z,40.90
2018-04-14T02:59:46.121Z,40.50
2018-04-14T03:00:46.124Z,42.20
2018-04-14T03:01:46.115Z,43.70
2018-04-14T03:02:46.116Z,38.40
2018-04-14T03:03:46.117Z,41.50
2018-04-14T03:04:46.111Z,37.20
2018-04-14T03:05:46.111Z,39.30
2018-04-14T03:06:46.112Z,38.80
2018-04-14T03:07:46.109Z,35.60
2018-04-14T03:08:46.115Z,34.10
2018-04-14T03:09:46.104Z,33.60
2018-04-14T03:10:46.100Z,33.30
2018-04-14T03:11:46.100Z,34.60
2018-04-14T03:12:46.104Z,34.60
2018-04-14T03:13:46.095Z,37.50
2018-04-14T03:14:46.093Z,36.80
2018-04-14T03:15:46.094Z,36.10
2018-04-14T03:16:46.090Z,35.40
2018-04-14T03:17:46.087Z,35.70
2018-04-14T03:18:46.085Z,37.20
2018-04-14T03:19:46.084Z,36.90
2018-04-14T03:20:46.080Z,38.90
2018-04-14T03:21:46.084Z,39.90
2018-04-14T03:22:46.078Z,42.00
2018-04-14T03:23:46.081Z,40.80
2018-04-14T03:24:46.075Z,42.40
2018-04-14T03:25:46.070Z,45.90
2018-04-14T03:26:46.071Z,42.70
2018-04-14T03:27:46.075Z,42.10
2018-04-14T03:28:46.061Z,40.60
2018-04-14T03:29:46.065Z,43.70
2018-04-14T03:30:46.063Z,42.90
2018-04-14T03:31:46.061Z,43.80
2018-04-14T03:32:46.058Z,44.60
2018-04-14T03:33:46.057Z,46.70
2018-04-14T03:34:46.056Z,49.40
2018-04-14T03:35:46.052Z,48.90
2018-04-14T03:36:46.052Z,50.70
2018-04-14T03:37:46.047Z,52.90
2018-04-14T03:38:46.046Z,57.50
2018-04-14T03:39:46.049Z,56.70
2018-04-14T03:40:46.043Z,54.80
2018-04-14T03:41:46.041Z,52.50
2018-04-14T03:42:46.040Z,53.00
2018-04-14T03:43:46.038Z,51.80
2018-04-14T03:44:46.035Z,53.40
2018-04-14T03:45:46.033Z,53.40
2018-04-14T03:46:46.032Z,53.30
2018-04-14T03:47:46.030Z,51.20
2018-04-14T03:48:46.025Z,47.50
2018-04-14T03:49:46.024Z,45.20
2018-04-14T03:50:46.025Z,46.00
2018-04-14T03:51:46.020Z,50.00
2018-04-14T03:52:46.016Z,47.40
2018-04-14T03:53:46.017Z,52.50
2018-04-14T03:54:46.014Z,52.30
2018-04-14T03:55:46.015Z,48.80
2018-04-14T03:56:46.017Z,48.10
2018-04-14T03:57:46.010Z,46.50
2018-04-14T03:58:46.007Z,46.90
2018-04-14T03:59:46.007Z,44.50
2018-04-14T04:00:46.001Z,42.40
2018-04-14T04:01:46.004Z,38.50
2018-04-14T04:02:46.000Z,39.20
2018-04-14T04:03:46.012Z,39.70
2018-04-14T04:04:45.992Z,35.20
2018-04-14T04:05:45.998Z,35.80
2018-04-14T04:06:45.992Z,35.00
2018-04-14T04:07:45.991Z,34.30
2018-04-14T04:08:45.993Z,34.90
2018-04-14T04:09:45.985Z,37.20
2018-04-14T04:10:45.984Z,34.70
2018-04-14T04:11:45.990Z,34.90
2018-04-14T04:12:45.980Z,28.60
2018-04-14T04:13:45.979Z,28.20
2018-04-14T04:14:45.977Z,26.60
2018-04-14T04:15:45.977Z,26.90
2018-04-14T04:16:45.971Z,26.80
2018-04-14T04:17:45.974Z,27.70
2018-04-14T04:18:45.974Z,26.90
2018-04-14T04:19:45.965Z,27.90
2018-04-14T04:20:45.964Z,27.10
2018-04-14T04:21:45.962Z,27.00
2018-04-14T04:22:45.960Z,28.20
2018-04-14T04:23:45.956Z,29.70
2018-04-14T04:24:45.953Z,30.80
2018-04-14T04:25:45.952Z,32.00
2018-04-14T04:26:45.953Z,29.80
2018-04-14T04:27:45.954Z,31.70
2018-04-14T04:28:45.946Z,31.40
2018-04-14T04:29:45.948Z,32.30
2018-04-14T04:30:45.943Z,31.60
2018-04-14T04:31:45.938Z,34.70
2018-04-14T04:32:45.939Z,34.70
2018-04-14T04:33:45.935Z,34.00
2018-04-14T04:34:45.936Z,34.20
2018-04-14T04:35:45.934Z,33.60
2018-04-14T04:36:45.929Z,34.60
2018-04-14T04:37:45.927Z,35.20
2018-04-14T04:38:45.932Z,34.00
2018-04-14T04:39:45.924Z,31.80
2018-04-14T04:40:45.921Z,33.70
2018-04-14T04:41:45.920Z,31.30
2018-04-14T04:42:45.924Z,30.70
2018-04-14T04:43:45.914Z,31.40
2018-04-14T04:44:45.914Z,30.50
2018-04-14T04:45:45.909Z,31.80
2018-04-14T04:46:45.907Z,31.10
2018-04-14T04:47:45.906Z,32.30
2018-04-14T04:48:45.981Z,31.90
2018-04-14T04:49:45.903Z,29.70
2018-04-14T04:50:45.905Z,31.10
2018-04-14T04:51:45.899Z,33.00
2018-04-14T04:52:45.894Z,32.90
2018-04-14T04:53:45.893Z,33.20
2018-04-14T04:54:45.889Z,33.60
2018-04-14T04:55:45.884Z,30.00
2018-04-14T04:56:45.887Z,28.40
2018-04-14T04:57:45.915Z,28.40
2018-04-14T04:58:45.877Z,28.30
2018-04-14T04:59:45.879Z,27.50
2018-04-14T05:00:45.876Z,26.90
2018-04-14T05:01:45.873Z,28.30
2018-04-14T05:02:45.872Z,28.40
2018-04-14T05:03:45.867Z,30.70
2018-04-14T05:04:45.863Z,28.60
2018-04-14T05:05:45.867Z,29.70
2018-04-14T05:06:45.863Z,29.70
2018-04-14T05:07:45.858Z,28.10
2018-04-14T05:08:45.854Z,29.80
2018-04-14T05:09:45.852Z,30.00
2018-04-14T05:10:45.850Z,31.50
2018-04-14T05:11:45.855Z,30.20
2018-04-14T05:12:45.839Z,28.30
2018-04-14T05:13:45.841Z,29.60
2018-04-14T05:14:45.841Z,30.40
2018-04-14T05:15:45.838Z,29.70
2018-04-14T05:16:45.832Z,32.10
2018-04-14T05:17:45.836Z,30.90
2018-04-14T05:18:45.838Z,29.90
2018-04-14T05:19:45.828Z,30.80
2018-04-14T05:20:45.825Z,29.30
2018-04-14T05:21:45.823Z,30.20
2018-04-14T05:22:45.821Z,29.60
2018-04-14T05:23:45.822Z,31.70
2018-04-14T05:24:45.815Z,30.40
2018-04-14T05:25:45.812Z,33.00
2018-04-14T05:26:45.811Z,32.40
2018-04-14T05:27:45.807Z,33.90
2018-04-14T05:28:45.806Z,34.80
2018-04-14T05:29:45.802Z,36.70
2018-04-14T05:30:45.800Z,38.80
2018-04-14T05:31:45.799Z,40.40
2018-04-14T05:32:45.794Z,40.70
2018-04-14T05:33:45.794Z,41.90
2018-04-14T05:34:45.805Z,41.80
2018-04-14T05:35:45.787Z,42.10
2018-04-14T05:36:45.784Z,42.50
2018-04-14T05:37:45.782Z,40.70
2018-04-14T05:38:45.781Z,41.90
2018-04-14T05:39:45.777Z,43.00
2018-04-14T05:40:45.775Z,46.80
2018-04-14T05:41:45.773Z,45.80
2018-04-14T05:42:45.821Z,43.30
2018-04-14T05:43:45.769Z,44.60
2018-04-14T05:44:45.765Z,45.10
2018-04-14T05:45:45.761Z,45.20
2018-04-14T05:46:45.761Z,45.90
2018-04-14T05:47:45.758Z,45.90
2018-04-14T05:48:45.754Z,47.00
2018-04-14T05:49:45.754Z,48.50
2018-04-14T05:50:45.752Z,49.40
2018-04-14T05:51:45.744Z,50.00
2018-04-14T05:52:45.743Z,49.70
2018-04-14T05:53:45.744Z,51.40
2018-04-14T05:54:45.739Z,50.60
2018-04-14T05:55:45.740Z,51.70
2018-04-14T05:56:45.736Z,53.50
2018-04-14T05:57:45.731Z,51.50
2018-04-14T05:58:45.732Z,54.60
2018-04-14T05:59:45.729Z,53.30
2018-04-14T06:00:45.732Z,53.60
2018-04-14T06:01:45.724Z,51.30
2018-04-14T06:02:45.724Z,56.10
2018-04-14T06:03:45.720Z,55.30
2018-04-14T06:04:45.728Z,52.70
2018-04-14T06:05:45.718Z,54.10
2018-04-14T06:06:45.713Z,52.90
2018-04-14T06:07:45.712Z,49.40
2018-04-14T06:08:45.710Z,50.30
2018-04-14T06:09:45.705Z,51.80
2018-04-14T06:10:45.706Z,50.10
2018-04-14T06:11:45.705Z,50.40
2018-04-14T06:12:45.696Z,48.60
2018-04-14T06:13:45.700Z,48.50
2018-04-14T06:14:45.696Z,47.40
2018-04-14T06:15:45.693Z,47.60
2018-04-14T06:16:45.686Z,45.40
2018-04-14T06:17:45.688Z,46.90
2018-04-14T06:18:45.687Z,46.00
2018-04-14T06:19:45.687Z,45.80
2018-04-14T06:20:45.682Z,46.00
2018-04-14T06:21:45.680Z,43.50
2018-04-14T06:22:45.677Z,47.90
2018-04-14T06:23:45.676Z,47.40
2018-04-14T06:24:45.673Z,48.10
2018-04-14T06:25:45.676Z,45.90
2018-04-14T06:26:45.671Z,47.60
2018-04-14T06:27:45.674Z,47.20
2018-04-14T06:28:45.663Z,47.20
2018-04-14T06:29:45.660Z,48.40
2018-04-14T06:30:45.668Z,45.30
2018-04-14T06:31:45.660Z,45.30
2018-04-14T06:32:45.656Z,44.50
2018-04-14T06:33:45.693Z,42.90
2018-04-14T06:34:45.650Z,43.40
2018-04-14T06:35:45.655Z,40.80
2018-04-14T06:36:45.647Z,42.50
2018-04-14T06:37:45.643Z,41.50
2018-04-14T06:38:45.645Z,42.40
2018-04-14T06:39:45.637Z,39.90
2018-04-14T06:40:45.636Z,40.80
2018-04-14T06:41:45.636Z,42.50
2018-04-14T06:42:45.639Z,43.10
2018-04-14T06:43:45.630Z,45.30
2018-04-14T06:44:45.629Z,44.90
2018-04-14T06:45:45.627Z,46.00
2018-04-14T06:46:45.626Z,46.20
2018-04-14T06:47:45.625Z,44.30
2018-04-14T06:48:45.622Z,47.70
2018-04-14T06:49:45.617Z,47.00
2018-04-14T06:50:45.616Z,46.50
2018-04-14T06:51:45.614Z,50.60
2018-04-14T06:52:45.610Z,48.80
2018-04-14T06:53:45.613Z,49.60
2018-04-14T06:54:45.608Z,52.90
2018-04-14T06:55:45.603Z,50.10
2018-04-14T06:56:45.604Z,54.50
2018-04-14T06:57:45.600Z,51.00
2018-04-14T06:58:45.599Z,51.50
2018-04-14T06:59:45.600Z,52.80
2018-04-14T07:00:45.597Z,53.40
2018-04-14T07:01:45.592Z,54.80
2018-04-14T07:02:45.597Z,55.00
2018-04-14T07:03:45.589Z,54.40
2018-04-14T07:04:45.588Z,54.40
2018-04-14T07:05:45.587Z,54.30
2018-04-14T07:06:45.586Z,54.90
2018-04-14T07:07:45.582Z,57.10
2018-04-14T07:08:45.580Z,58.60
2018-04-14T07:09:45.579Z,57.10
2018-04-14T07:10:45.574Z,57.50
2018-04-14T07:11:45.573Z,58.00
2018-04-14T07:12:45.572Z,60.10
2018-04-14T07:13:45.573Z,58.80
2018-04-14T07:14:45.573Z,56.10
2018-04-14T07:15:45.571Z,57.40
2018-04-14T07:16:45.565Z,55.40
2018-04-14T07:17:45.566Z,52.60
2018-04-14T07:18:45.568Z,51.20
2018-04-14T07:19:45.563Z,53.60
2018-04-14T07:20:45.638Z,52.00
2018-04-14T07:21:45.560Z,51.20
2018-04-14T07:22:45.561Z,51.80
2018-04-14T07:23:45.557Z,51.30
2018-04-14T07:24:45.554Z,52.40
2018-04-14T07:25:45.556Z,51.70
2018-04-14T07:26:45.612Z,50.00
2018-04-14T07:27:45.557Z,48.30
2018-04-14T07:28:45.551Z,50.00
2018-04-14T07:29:45.555Z,49.50
2018-04-14T07:30:45.550Z,51.10
2018-04-14T07:31:45.548Z,51.30
2018-04-14T07:32:45.549Z,53.10
2018-04-14T07:33:45.547Z,48.40
2018-04-14T07:34:45.547Z,50.20
2018-04-14T07:35:45.545Z,52.00
2018-04-14T07:36:45.555Z,51.60
2018-04-14T07:37:45.554Z,51.10
2018-04-14T07:38:45.546Z,51.10
2018-04-14T07:39:45.546Z,51.10
2018-04-14T07:40:45.547Z,51.60
2018-04-14T07:41:45.540Z,51.40
2018-04-14T07:42:45.543Z,50.90
2018-04-14T07:43:45.544Z,51.10
2018-04-14T07:44:45.543Z,51.00
2018-04-14T07:45:45.542Z,51.50
2018-04-14T07:46:45.545Z,52.20
2018-04-14T07:47:45.542Z,51.60
2018-04-14T07:48:45.541Z,51.20
2018-04-14T07:49:45.543Z,51.30
2018-04-14T07:50:45.541Z,53.30
2018-04-14T07:51:45.541Z,52.10
2018-04-14T07:52:45.543Z,52.50
2018-04-14T07:53:45.545Z,52.40
2018-04-14T07:54:45.541Z,52.50
2018-04-14T07:55:45.540Z,53.10
2018-04-14T07:56:45.538Z,53.10
2018-04-14T07:57:45.561Z,54.60
2018-04-14T07:58:45.541Z,55.30
2018-04-14T07:59:45.539Z,52.80
2018-04-14T08:00:45.538Z,52.70
2018-04-14T08:01:45.540Z,54.30
2018-04-14T08:02:45.538Z,54.10
2018-04-14T08:03:45.537Z,52.50
2018-04-14T08:04:45.537Z,53.40
2018-04-14T08:05:45.537Z,53.00
2018-04-14T08:06:45.538Z,51.10
2018-04-14T08:07:45.536Z,52.40
2018-04-14T08:08:45.536Z,52.70
2018-04-14T08:09:45.536Z,51.40
2018-04-14T08:10:45.530Z,51.80
2018-04-14T08:11:45.534Z,52.20
2018-04-14T08:12:45.537Z,50.10
2018-04-14T08:13:45.535Z,51.50
2018-04-14T08:14:45.538Z,52.60
2018-04-14T08:15:45.537Z,52.80
2018-04-14T08:16:45.542Z,54.50
2018-04-14T08:17:45.536Z,52.50
2018-04-14T08:18:45.536Z,54.10
2018-04-14T08:19:45.535Z,52.10
2018-04-14T08:20:45.541Z,53.90
2018-04-14T08:21:45.537Z,52.70
2018-04-14T08:22:45.536Z,52.20
2018-04-14T08:23:45.537Z,49.50
2018-04-14T08:24:45.551Z,50.40
2018-04-14T08:25:45.544Z,49.80
2018-04-14T08:26:45.534Z,52.10
2018-04-14T08:27:45.536Z,51.70
2018-04-14T08:28:45.540Z,50.70
2018-04-14T08:29:45.537Z,51.80
2018-04-14T08:30:45.538Z,50.30
2018-04-14T08:31:45.543Z,49.80
2018-04-14T08:32:45.536Z,47.20
2018-04-14T08:33:45.569Z,49.00
2018-04-14T08:34:45.541Z,49.60
2018-04-14T08:35:45.544Z,49.30
2018-04-14T08:36:46.192Z,49.10
2018-04-14T08:37:45.544Z,48.70
2018-04-14T08:38:45.542Z,49.90
2018-04-14T08:39:45.544Z,48.10
2018-04-14T08:40:45.539Z,50.40
2018-04-14T08:41:45.543Z,49.90
2018-04-14T08:42:45.544Z,48.40
2018-04-14T08:43:45.541Z,50.10
2018-04-14T08:44:45.541Z,48.50
2018-04-14T08:45:45.547Z,46.70
2018-04-14T08:46:45.548Z,48.00
2018-04-14T08:47:45.547Z,47.70
2018-04-14T08:48:45.594Z,45.80
2018-04-14T08:49:45.546Z,47.90
2018-04-14T08:50:45.547Z,48.00
2018-04-14T08:51:45.548Z,48.40
2018-04-14T08:52:45.551Z,47.80
2018-04-14T08:53:45.548Z,48.20
2018-04-14T08:54:45.556Z,49.90
2018-04-14T08:55:45.551Z,48.20
2018-04-14T08:56:45.551Z,46.20
2018-04-14T08:57:45.549Z,45.20
2018-04-14T08:58:45.557Z,45.10
2018-04-14T08:59:45.548Z,41.90
2018-04-14T09:00:45.555Z,42.10
2018-04-14T09:01:45.551Z,44.00
2018-04-14T09:02:45.553Z,43.20
2018-04-14T09:03:45.553Z,44.30
2018-04-14T09:04:45.556Z,46.50
2018-04-14T09:05:45.551Z,46.60
2018-04-14T09:06:45.553Z,46.00
2018-04-14T09:07:45.554Z,46.80
2018-04-14T09:08:45.553Z,48.40
2018-04-14T09:09:45.560Z,46.50
2018-04-14T09:10:45.557Z,50.00
2018-04-14T09:11:45.555Z,49.30
2018-04-14T09:12:45.554Z,48.40
2018-04-14T09:13:45.555Z,50.30
2018-04-14T09:14:45.559Z,50.60
2018-04-14T09:15:45.554Z,49.30
2018-04-14T09:16:45.556Z,50.90
2018-04-14T09:17:45.561Z,51.50
2018-04-14T09:18:45.559Z,52.30
2018-04-14T09:19:45.557Z,51.40
2018-04-14T09:20:45.558Z,52.30
2018-04-14T09:21:45.560Z,52.40
2018-04-14T09:22:45.557Z,50.80
2018-04-14T09:23:45.557Z,50.20
2018-04-14T09:24:45.561Z,50.70
2018-04-14T09:25:45.559Z,52.70
2018-04-14T09:26:45.617Z,51.90
2018-04-14T09:27:45.561Z,52.30
2018-04-14T09:28:45.565Z,52.80
2018-04-14T09:29:45.563Z,52.10
2018-04-14T09:30:45.565Z,51.90
2018-04-14T09:31:45.586Z,49.90
2018-04-14T09:32:45.564Z,50.90
2018-04-14T09:33:45.569Z,50.80
2018-04-14T09:34:45.567Z,51.10
2018-04-14T09:35:45.570Z,51.50
2018-04-14T09:36:45.571Z,53.30
2018-04-14T09:37:45.575Z,52.60
2018-04-14T09:38:45.568Z,52.00
2018-04-14T09:39:45.572Z,53.20
2018-04-14T09:40:45.579Z,51.60
2018-04-14T09:41:45.573Z,52.80
2018-04-14T09:42:45.571Z,51.40
2018-04-14T09:43:45.573Z,52.30
2018-04-14T09:44:45.573Z,53.10
2018-04-14T09:45:45.578Z,51.60
2018-04-14T09:46:45.578Z,49.80
2018-04-14T09:47:45.588Z,49.50
2018-04-14T09:48:45.578Z,48.70
2018-04-14T09:49:45.579Z,51.10
2018-04-14T09:50:45.585Z,47.90
2018-04-14T09:51:45.582Z,46.50
2018-04-14T09:52:45.583Z,47.30
2018-04-14T09:53:45.582Z,44.60
2018-04-14T09:54:45.585Z,46.30
2018-04-14T09:55:45.583Z,47.00
2018-04-14T09:56:45.584Z,46.10
2018-04-14T09:57:45.583Z,46.10
2018-04-14T09:58:45.593Z,46.50
2018-04-14T09:59:45.593Z,43.70
2018-04-14T10:00:45.588Z,44.00
2018-04-14T10:01:45.591Z,43.40
2018-04-14T10:02:45.590Z,43.20
2018-04-14T10:03:45.595Z,40.80
2018-04-14T10:04:45.592Z,41.90
2018-04-14T10:05:45.595Z,41.70
2018-04-14T10:06:45.592Z,41.50
2018-04-14T10:07:45.594Z,40.30
2018-04-14T10:08:45.598Z,41.30
2018-04-14T10:09:45.597Z,40.60
2018-04-14T10:10:45.602Z,39.80
2018-04-14T10:11:45.600Z,39.30
2018-04-14T10:12:45.599Z,38.90
2018-04-14T10:13:45.600Z,37.70
2018-04-14T10:14:45.602Z,39.00
2018-04-14T10:15:45.609Z,39.80
2018-04-14T10:16:45.605Z,40.10
2018-04-14T10:17:45.610Z,39.20
2018-04-14T10:18:45.610Z,38.20
2018-04-14T10:19:45.608Z,37.30
2018-04-14T10:20:45.608Z,38.00
2018-04-14T10:21:45.609Z,37.50
2018-04-14T10:22:45.609Z,37.90
2018-04-14T10:23:45.615Z,38.10
2018-04-14T10:24:45.608Z,38.20
2018-04-14T10:25:45.611Z,36.20
2018-04-14T10:26:45.613Z,37.60
2018-04-14T10:27:45.615Z,38.30
2018-04-14T10:28:45.615Z,37.90
2018-04-14T10:29:45.621Z,37.70
2018-04-14T10:30:45.616Z,36.30
2018-04-14T10:31:45.617Z,36.70
2018-04-14T10:32:45.618Z,34.90
2018-04-14T10:33:45.617Z,37.70
2018-04-14T10:34:45.620Z,37.00
2018-04-14T10:35:45.619Z,36.30
2018-04-14T10:36:45.624Z,36.60
2018-04-14T10:37:45.670Z,37.00
2018-04-14T10:38:45.659Z,38.90
2018-04-14T10:39:45.622Z,36.80
2018-04-14T10:40:45.656Z,37.00
2018-04-14T10:41:45.625Z,37.60
2018-04-14T10:42:45.629Z,36.70
2018-04-14T10:43:45.628Z,37.40
2018-04-14T10:44:45.629Z,37.50
2018-04-14T10:45:45.632Z,37.60
2018-04-14T10:46:45.635Z,36.60
2018-04-14T10:47:45.636Z,35.90
2018-04-14T10:48:45.632Z,35.70
2018-04-14T10:49:45.635Z,37.40
2018-04-14T10:50:45.636Z,36.40
2018-04-14T10:51:45.636Z,35.10
2018-04-14T10:52:45.640Z,36.10
2018-04-14T10:53:45.646Z,36.50
2018-04-14T10:54:45.680Z,35.00
2018-04-14T10:55:45.677Z,36.50
2018-04-14T10:56:45.642Z,35.60
2018-04-14T10:57:45.647Z,36.40
2018-04-14T10:58:45.645Z,36.40
2018-04-14T10:59:45.642Z,36.00
2018-04-14T11:00:45.644Z,37.00
2018-04-14T11:01:45.647Z,35.00
2018-04-14T11:02:45.657Z,36.10
2018-04-14T11:03:45.653Z,35.40
2018-04-14T11:04:45.654Z,35.30
2018-04-14T11:05:45.651Z,35.80
2018-04-14T11:06:45.652Z,35.90
2018-04-14T11:07:45.657Z,36.00
2018-04-14T11:08:45.654Z,35.20
2018-04-14T11:09:45.653Z,35.20
2018-04-14T11:10:45.660Z,35.20
2018-04-14T11:11:45.659Z,35.20
2018-04-14T11:12:45.666Z,36.20
2018-04-14T11:13:45.664Z,36.80
2018-04-14T11:14:45.662Z,36.60
2018-04-14T11:15:45.672Z,37.50
2018-04-14T11:16:45.664Z,36.80
2018-04-14T11:17:45.670Z,37.00
2018-04-14T11:18:45.675Z,36.00
2018-04-14T11:19:45.668Z,36.60
2018-04-14T11:20:45.672Z,36.30
2018-04-14T11:21:45.670Z,35.80
2018-04-14T11:22:45.676Z,36.50
2018-04-14T11:23:45.676Z,37.30
2018-04-14T11:24:45.676Z,37.90
2018-04-14T11:25:45.675Z,37.50
2018-04-14T11:26:45.677Z,38.30
2018-04-14T11:27:45.680Z,37.10
2018-04-14T11:28:45.685Z,37.80
2018-04-14T11:29:45.686Z,36.80
2018-04-14T11:30:45.683Z,37.00
2018-04-14T11:31:45.688Z,36.60
2018-04-14T11:32:45.687Z,36.10
2018-04-14T11:33:45.687Z,37.20
2018-04-14T11:34:45.688Z,35.40
2018-04-14T11:35:45.691Z,35.90
2018-04-14T11:36:45.687Z,35.60
2018-04-14T11:37:45.692Z,36.10
2018-04-14T11:38:45.697Z,35.70
2018-04-14T11:39:45.694Z,35.10
2018-04-14T11:40:45.696Z,36.60
2018-04-14T11:41:45.696Z,36.70
2018-04-14T11:42:45.703Z,35.50
2018-04-14T11:43:45.703Z,35.20
2018-04-14T11:44:45.700Z,35.40
2018-04-14T11:45:45.703Z,35.20
2018-04-14T11:46:45.708Z,35.30
2018-04-14T11:47:45.707Z,34.50
2018-04-14T11:48:45.707Z,33.90
2018-04-14T11:49:45.714Z,35.40
2018-04-14T11:50:45.713Z,35.10
2018-04-14T11:51:45.714Z,33.60
2018-04-14T11:52:45.714Z,34.60
2018-04-14T11:53:45.722Z,34.80
2018-04-14T11:54:45.719Z,34.10
2018-04-14T11:55:45.727Z,33.90
2018-04-14T11:56:45.725Z,34.70
2018-04-14T11:57:45.723Z,34.00
2018-04-14T11:58:45.726Z,34.00
2018-04-14T11:59:45.729Z,33.90
2018-04-14T12:00:45.729Z,33.60
2018-04-14T12:01:45.736Z,33.80
2018-04-14T12:02:45.734Z,34.30
2018-04-14T12:03:45.799Z,33.20
2018-04-14T12:04:45.741Z,33.80
2018-04-14T12:05:45.741Z,33.90
2018-04-14T12:06:45.755Z,33.60
2018-04-14T12:07:45.748Z,33.60
2018-04-14T12:08:45.747Z,33.20
2018-04-14T12:09:45.749Z,33.40
2018-04-14T12:10:45.756Z,32.40
2018-04-14T12:11:45.753Z,33.60
2018-04-14T12:12:45.755Z,32.90
2018-04-14T12:13:45.760Z,32.30
2018-04-14T12:14:45.762Z,32.00
2018-04-14T12:15:45.763Z,32.50
2018-04-14T12:16:45.762Z,32.20
2018-04-14T12:17:45.766Z,31.10
2018-04-14T12:18:45.762Z,30.70
2018-04-14T12:19:45.768Z,30.30
2018-04-14T12:20:45.771Z,31.60
2018-04-14T12:21:45.772Z,30.10
2018-04-14T12:22:45.776Z,31.30
2018-04-14T12:23:45.779Z,31.40
2018-04-14T12:24:45.779Z,31.80
2018-04-14T12:25:45.783Z,31.40
2018-04-14T12:26:45.789Z,30.00
2018-04-14T12:27:45.785Z,29.60
2018-04-14T12:28:45.782Z,29.70
2018-04-14T12:29:45.787Z,30.20
2018-04-14T12:30:45.790Z,30.60
2018-04-14T12:31:45.790Z,29.70
2018-04-14T12:32:45.791Z,30.00
2018-04-14T12:33:45.794Z,30.30
2018-04-14T12:34:45.796Z,29.60
2018-04-14T12:35:45.796Z,30.00
2018-04-14T12:36:45.800Z,29.30
2018-04-14T12:37:45.800Z,27.80
2018-04-14T12:38:45.802Z,29.40
2018-04-14T12:39:45.803Z,29.00
2018-04-14T12:40:45.803Z,29.00
2018-04-14T12:41:45.807Z,27.80
2018-04-14T12:42:45.808Z,27.80
2018-04-14T12:43:45.811Z,27.40
2018-04-14T12:44:45.813Z,27.70
2018-04-14T12:45:45.808Z,28.40
2018-04-14T12:46:45.817Z,27.40
2018-04-14T12:47:45.817Z,29.20
2018-04-14T12:48:45.824Z,28.00
2018-04-14T12:49:45.821Z,27.60
2018-04-14T12:50:45.822Z,28.40
2018-04-14T12:51:45.826Z,28.60
2018-04-14T12:52:45.824Z,28.20